createdAt,value
2018-04-16T00:02:25.412Z,64.50
2018-04-16T00:04:51.847Z,64.50
2018-04-16T00:07:18.285Z,64.10
2018-04-16T00:09:44.717Z,64.00
2018-04-16T00:12:11.270Z,63.90
2018-04-16T00:14:37.651Z,64.00
2018-04-16T00:17:04.095Z,63.80
2018-04-16T00:19:30.521Z,64.00
2018-04-16T00:21:56.932Z,64.10
2018-04-16T00:24:23.304Z,64.40
2018-04-16T00:26:49.820Z,64.60
2018-04-16T00:29:16.281Z,64.50
2018-04-16T00:31:48.779Z,64.60
2018-04-16T00:34:21.996Z,64.90
2018-04-16T00:36:54.570Z,64.80
2018-04-16T00:39:27.016Z,64.70
2018-04-16T00:42:00.070Z,65.00
2018-04-16T00:44:32.564Z,65.00
2018-04-16T00:47:04.989Z,65.30
2018-04-16T00:49:37.501Z,65.60
2018-04-16T00:52:09.904Z,66.00
2018-04-16T00:54:42.484Z,66.00
2018-04-16T00:57:14.813Z,66.10
2018-04-16T00:59:47.309Z,66.10
2018-04-16T01:02:19.616Z,67.00
2018-04-16T01:04:51.988Z,66.50
2018-04-16T01:07:24.526Z,66.70
2018-04-16T01:09:57.722Z,68.00
2018-04-16T01:12:30.904Z,67.80
2018-04-16T01:15:04.056Z,67.80
2018-04-16T01:17:36.632Z,67.80
2018-04-16T01:20:09.002Z,67.80
2018-04-16T01:22:41.380Z,67.30
2018-04-16T01:25:13.839Z,67.10
2018-04-16T01:27:46.961Z,67.40
2018-04-16T01:30:19.433Z,67.40
2018-04-16T01:32:52.614Z,69.00
2018-04-16T01:35:25.116Z,69.00
2018-04-16T01:37:58.505Z,69.00
2018-04-16T01:40:31.871Z,69.70
2018-04-16T01:43:04.418Z,68.90
2018-04-16T01:45:36.973Z,68.50
2018-04-16T01:48:09.519Z,68.40
2018-04-16T01:50:41.974Z,68.70
2018-04-16T01:53:14.420Z,68.30
2018-04-16T01:55:47.553Z,69.00
2018-04-16T01:58:19.924Z,69.00
2018-04-16T02:00:52.459Z,68.90
2018-04-16T02:03:25.683Z,68.10
2018-04-16T02:05:58.403Z,68.10
2018-04-16T02:08:30.845Z,67.40
2018-04-16T02:11:04.057Z,67.10
2018-04-16T02:13:36.421Z,67.10
2018-04-16T02:16:09.668Z,66.30
2018-04-16T02:18:41.997Z,66.30
2018-04-16T02:21:14.426Z,66.20
2018-04-16T02:23:46.724Z,66.90
2018-04-16T02:26:19.132Z,67.10
2018-04-16T02:28:51.594Z,67.70
2018-04-16T02:31:24.143Z,69.00
2018-04-16T02:33:56.521Z,69.80
2018-04-16T02:36:29.044Z,71.90
2018-04-16T02:39:01.379Z,72.30
2018-04-16T02:41:34.117Z,73.50
2018-04-16T02:47:11.717Z,74.10
2018-04-16T02:49:44.219Z,74.30
2018-04-16T02:52:16.893Z,74.50
2018-04-16T02:54:50.220Z,75.00
2018-04-16T02:57:22.857Z,74.80
2018-04-16T02:59:55.226Z,74.30
2018-04-16T03:02:28.372Z,75.30
2018-04-16T03:05:00.960Z,75.20
2018-04-16T03:07:33.315Z,74.70
2018-04-16T03:10:05.680Z,75.10
2018-04-16T03:12:38.010Z,75.00
2018-04-16T03:15:11.104Z,76.80
2018-04-16T03:17:43.506Z,76.20
2018-04-16T03:20:15.994Z,78.90
2018-04-16T03:22:48.546Z,78.10
2018-04-16T03:25:20.990Z,80.30
2018-04-16T03:27:54.097Z,78.60
2018-04-16T03:30:27.298Z,79.50
2018-04-16T03:32:59.713Z,79.70
2018-04-16T03:35:32.118Z,80.30
2018-04-16T03:38:05.387Z,78.60
2018-04-16T03:40:37.718Z,78.50
2018-04-16T03:46:13.483Z,79.20
2018-04-16T03:48:53.602Z,78.10
2018-04-16T03:51:20.784Z,78.80
2018-04-16T03:53:48.041Z,78.80
2018-04-16T03:56:14.387Z,78.80
2018-04-16T03:58:40.799Z,78.70
2018-04-16T04:01:07.202Z,77.70
2018-04-16T04:03:33.629Z,77.80
2018-04-16T04:06:00.800Z,77.70
2018-04-16T04:08:27.358Z,77.70
2018-04-16T04:10:53.752Z,78.00
2018-04-16T04:13:20.903Z,80.50
2018-04-16T04:15:47.287Z,80.50
2018-04-16T04:18:13.668Z,80.90
2018-04-16T04:20:40.056Z,81.90
2018-04-16T04:23:24.712Z,81.90
2018-04-16T04:26:09.357Z,81.90
2018-04-16T04:28:54.178Z,81.10
2018-04-16T04:31:20.588Z,80.90
2018-04-16T04:33:47.784Z,81.90
2018-04-16T04:36:14.185Z,81.80
2018-04-16T04:38:41.296Z,82.90
2018-04-16T04:41:08.297Z,82.80
2018-04-16T04:43:34.722Z,82.10
2018-04-16T04:46:01.225Z,82.60
2018-04-16T04:48:28.341Z,80.50
2018-04-16T04:50:54.693Z,80.30
2018-04-16T04:53:21.074Z,79.90
2018-04-16T04:55:47.452Z,79.10
2018-04-16T04:58:14.634Z,80.10
2018-04-16T05:00:41.060Z,80.10
2018-04-16T05:03:07.459Z,80.50
2018-04-16T05:05:34.897Z,80.10
2018-04-16T05:08:01.311Z,80.50
2018-04-16T05:10:27.811Z,79.80
2018-04-16T05:12:54.244Z,79.40
2018-04-16T05:15:20.676Z,78.80
2018-04-16T05:17:47.172Z,79.20
2018-04-16T05:20:13.597Z,80.10
2018-04-16T05:22:40.040Z,80.90
2018-04-16T05:25:06.544Z,80.60
2018-04-16T05:27:32.967Z,80.80
2018-04-16T05:29:59.424Z,80.20
2018-04-16T05:32:25.927Z,81.00
2018-04-16T05:34:52.359Z,80.60
2018-04-16T05:37:18.746Z,80.80
2018-04-16T05:39:45.164Z,80.70
2018-04-16T05:42:11.666Z,80.30
2018-04-16T05:44:38.124Z,79.90
2018-04-16T05:47:04.529Z,79.70
2018-04-16T05:49:30.904Z,79.40
2018-04-16T05:51:57.336Z,79.30
2018-04-16T05:54:24.516Z,78.40
2018-04-16T05:56:51.749Z,77.80
2018-04-16T05:59:18.954Z,77.80
2018-04-16T06:01:45.464Z,77.80
2018-04-16T06:04:11.905Z,77.90
2018-04-16T06:06:39.041Z,77.90
2018-04-16T06:09:06.359Z,77.90
2018-04-16T06:11:32.818Z,77.90
2018-04-16T06:13:59.236Z,77.70
2018-04-16T06:16:25.644Z,79.70
2018-04-16T06:18:52.857Z,79.90
2018-04-16T06:21:19.242Z,79.80
2018-04-16T06:23:45.629Z,79.60
2018-04-16T06:26:12.139Z,79.60
2018-04-16T06:28:38.543Z,80.00
2018-04-16T06:31:04.983Z,80.10
2018-04-16T06:33:31.405Z,80.10
2018-04-16T06:35:57.920Z,79.60
2018-04-16T06:38:24.444Z,79.40
2018-04-16T06:40:50.870Z,78.90
2018-04-16T06:43:17.253Z,78.40
2018-04-16T06:45:43.748Z,78.60
2018-04-16T06:48:10.159Z,78.60
2018-04-16T06:50:36.607Z,78.00
2018-04-16T06:53:03.038Z,78.00
2018-04-16T06:55:30.242Z,78.00
2018-04-16T06:57:56.712Z,78.00
2018-04-16T07:00:23.885Z,79.00
2018-04-16T07:02:50.348Z,78.90
2018-04-16T07:05:16.886Z,77.60
2018-04-16T07:07:43.348Z,79.10
2018-04-16T07:10:09.735Z,79.00
2018-04-16T07:12:36.220Z,80.20
2018-04-16T07:15:03.381Z,77.10
2018-04-16T07:17:30.567Z,76.30
2018-04-16T07:19:57.039Z,76.40
2018-04-16T07:22:23.494Z,74.70
2018-04-16T07:24:50.623Z,74.90
2018-04-16T07:27:17.876Z,74.90
2018-04-16T07:29:44.271Z,74.80
2018-04-16T07:32:10.707Z,73.50
2018-04-16T07:34:37.148Z,73.20
2018-04-16T07:37:03.533Z,72.70
2018-04-16T07:39:30.690Z,70.70
2018-04-16T07:41:57.132Z,70.90
2018-04-16T18:57:10.115Z,44.40
2018-04-16T18:59:36.525Z,44.40
2018-04-16T19:02:03.110Z,44.80
2018-04-16T19:04:29.556Z,45.30
2018-04-16T19:06:56.061Z,45.60
2018-04-16T19:09:22.499Z,45.50
2018-04-16T19:11:49.893Z,45.70
2018-04-16T19:14:17.030Z,45.60
2018-04-16T19:16:43.502Z,45.50
2018-04-16T19:19:10.007Z,46.00
2018-04-16T19:21:42.438Z,46.00
2018-04-16T19:24:08.898Z,45.60
2018-04-16T19:26:35.438Z,46.60
2018-04-16T19:29:01.900Z,46.80
2018-04-16T19:31:28.517Z,46.60
2018-04-16T19:34:01.873Z,46.50
2018-04-16T19:36:28.552Z,46.50
2018-04-16T19:38:55.003Z,46.80
2018-04-16T19:41:21.497Z,46.80
2018-04-16T19:43:48.764Z,47.50
2018-04-16T19:46:15.240Z,47.50
2018-04-16T19:51:46.883Z,47.60
2018-04-16T19:54:13.368Z,47.80
2018-04-16T19:56:45.981Z,48.40
2018-04-16T19:59:13.216Z,48.10
2018-04-16T20:01:39.791Z,48.10
2018-04-16T20:04:06.384Z,48.30
2018-04-16T20:06:33.565Z,48.60
2018-04-16T20:09:10.089Z,48.50
2018-04-16T20:11:36.623Z,48.40
2018-04-16T20:14:03.101Z,48.70
2018-04-16T20:16:30.710Z,48.80
2018-04-16T20:18:57.184Z,48.80
2018-04-16T20:21:23.790Z,49.00
2018-04-16T20:23:50.218Z,49.10
2018-04-16T20:26:16.697Z,49.20
2018-04-16T20:28:43.164Z,49.60
2018-04-16T20:31:09.736Z,49.80
2018-04-16T20:33:36.191Z,50.00
2018-04-16T20:36:02.696Z,50.30
2018-04-16T20:38:32.517Z,50.50
2018-04-16T20:40:59.024Z,50.30
2018-04-16T20:43:25.494Z,50.60
2018-04-16T20:45:52.747Z,50.60
2018-04-16T20:48:19.219Z,50.70
2018-04-16T20:50:45.714Z,50.60
2018-04-16T20:53:12.219Z,51.30
2018-04-16T20:55:38.685Z,51.20
2018-04-16T20:58:05.157Z,51.20
2018-04-16T21:00:31.632Z,51.20
2018-04-16T21:02:58.828Z,51.90
2018-04-16T21:05:25.274Z,51.90
2018-04-16T21:07:51.728Z,51.60
2018-04-16T21:10:18.205Z,51.70
2018-04-16T21:12:44.647Z,50.80
2018-04-16T21:15:11.114Z,49.80
2018-04-16T21:17:37.555Z,49.50
2018-04-16T21:20:03.994Z,49.60
2018-04-16T21:22:30.473Z,48.80
2018-04-16T21:24:56.898Z,48.20
2018-04-16T21:27:23.317Z,47.60
2018-04-16T21:29:49.796Z,47.70
2018-04-16T21:32:16.218Z,47.10
2018-04-16T21:34:42.707Z,47.20
2018-04-16T21:37:09.898Z,46.50
2018-04-16T21:39:36.400Z,46.50
2018-04-16T21:42:02.806Z,46.10
2018-04-16T21:44:29.206Z,46.10
2018-04-16T21:46:55.689Z,45.70
2018-04-16T21:49:22.155Z,45.70
2018-04-16T21:51:48.592Z,45.70
2018-04-16T21:54:14.983Z,45.40
2018-04-16T21:56:42.149Z,46.60
2018-04-16T21:59:08.601Z,46.50
2018-04-16T22:01:35.041Z,46.00
2018-04-16T22:04:01.575Z,45.70
2018-04-16T22:06:28.048Z,45.30
2018-04-16T22:08:55.213Z,45.80
2018-04-16T22:11:21.673Z,45.70
2018-04-16T22:13:48.174Z,45.30
2018-04-16T22:16:14.618Z,44.10
2018-04-16T22:18:41.053Z,44.20
2018-04-16T22:21:07.485Z,44.90
2018-04-16T22:23:34.588Z,45.40
2018-04-16T22:26:00.977Z,45.40
2018-04-16T22:28:27.454Z,45.10
2018-04-16T22:30:53.923Z,45.30
2018-04-16T22:33:20.325Z,46.00
2018-04-16T22:35:47.437Z,45.10
2018-04-16T22:38:13.856Z,45.00
2018-04-16T22:40:40.308Z,45.30
2018-04-16T22:43:06.723Z,44.80
2018-04-16T22:45:33.194Z,45.50
2018-04-16T22:47:59.696Z,45.60
2018-04-16T22:50:26.137Z,45.70
2018-04-16T22:52:52.557Z,46.00
2018-04-16T22:55:19.059Z,46.40
2018-04-16T22:57:45.460Z,46.90
2018-04-16T23:00:11.952Z,47.20
2018-04-16T23:02:38.363Z,48.20
2018-04-16T23:05:04.820Z,48.50
2018-04-16T23:07:31.172Z,48.60
2018-04-16T23:09:57.591Z,50.00
2018-04-16T23:12:24.015Z,49.90
2018-04-16T23:14:52.117Z,49.80
2018-04-16T23:17:18.495Z,50.80
2018-04-16T23:19:44.879Z,50.40
2018-04-16T23:22:13.927Z,50.90
2018-04-16T23:24:40.318Z,50.90
2018-04-16T23:27:06.702Z,51.30
2018-04-16T23:29:33.102Z,52.50
2018-04-16T23:31:59.492Z,52.80
2018-04-16T23:34:25.913Z,52.80
2018-04-16T23:36:52.285Z,53.30
2018-04-16T23:39:18.686Z,53.20
2018-04-16T23:41:45.099Z,54.10
2018-04-16T23:44:11.525Z,53.90
2018-04-16T23:46:37.917Z,54.00
2018-04-16T23:49:04.389Z,54.00
2018-04-16T23:51:30.772Z,53.70
2018-04-16T23:53:57.149Z,54.00
2018-04-16T23:56:23.560Z,54.40
2018-04-16T23:58:49.935Z,54.60
